Time;durP1;ratioP1;P1;durP2;ratioP2;P2;SDS_P1;SDS_P2;PMS_P1;PMS_P2;Temp;Humidity;BMP_temperature;BMP_pressure;BME280_temperature;BME280_humidity;BME280_pressure;Samples;Min_cycle;Max_cycle;Signal;HPM_P1;HPM_P2
2021/03/19 00:09:29;;;;;;;17.85;9.80;;;3.80;99.90;;;;;;6734723;88;20531;-79
2021/03/19 00:19:29;;;;;;;20.70;10.05;;;3.80;99.90;;;;;;6741741;88;20202;-78
2021/03/19 00:29:30;;;;;;;21.37;10.07;;;3.60;99.90;;;;;;6745113;88;20672;-78
2021/03/19 00:39:30;;;;;;;25.45;10.95;;;3.40;99.90;;;;;;6744331;88;20539;-80
2021/03/19 00:49:33;;;;;;;24.40;11.40;;;3.30;99.90;;;;;;6740369;88;20232;-78
2021/03/19 00:59:33;;;;;;;25.37;11.82;;;3.40;99.90;;;;;;6725656;88;20507;-78
2021/03/19 01:09:34;;;;;;;22.05;11.15;;;3.40;99.90;;;;;;6731583;88;20215;-78
2021/03/19 01:19:37;;;;;;;22.67;11.43;;;3.40;99.90;;;;;;6736753;88;20296;-78
2021/03/19 01:29:38;;;;;;;21.35;10.73;;;3.30;99.90;;;;;;6733912;88;20185;-78
2021/03/19 01:39:39;;;;;;;21.45;10.73;;;3.40;99.90;;;;;;6743943;88;20202;-78
2021/03/19 01:50:17;;;;;;;18.30;10.02;;;3.30;99.90;;;;;;6735357;88;20728;-77
2021/03/19 02:00:55;;;;;;;20.60;10.60;;;3.30;99.90;;;;;;6741786;88;20917;-77
2021/03/19 02:11:33;;;;;;;19.23;10.25;;;3.30;99.90;;;;;;6729485;88;20203;-78
2021/03/19 02:22:11;;;;;;;19.85;10.95;;;3.30;99.90;;;;;;6732741;88;20204;-78
2021/03/19 02:32:14;;;;;;;20.73;11.23;;;3.20;99.90;;;;;;6737374;88;20268;-78
2021/03/19 02:42:18;;;;;;;22.98;11.68;;;3.10;99.90;;;;;;6742207;88;20197;-78
2021/03/19 02:52:22;;;;;;;21.95;11.95;;;2.90;99.90;;;;;;6750238;88;20199;-78
2021/03/19 03:02:23;;;;;;;24.27;12.88;;;2.80;99.90;;;;;;6731249;88;20194;-78
2021/03/19 03:12:24;;;;;;;24.42;12.50;;;2.60;99.90;;;;;;6726805;88;20914;-78
2021/03/19 03:22:25;;;;;;;26.65;12.65;;;2.30;99.90;;;;;;6727627;88;20192;-78
2021/03/19 03:32:25;;;;;;;26.12;13.48;;;2.20;99.90;;;;;;6727633;88;20226;-78
2021/03/19 03:42:26;;;;;;;27.65;12.88;;;2.10;99.90;;;;;;6727406;88;20708;-77
2021/03/19 03:52:26;;;;;;;31.37;14.35;;;2.00;99.90;;;;;;6723412;88;20536;-78
2021/03/19 04:02:28;;;;;;;28.77;13.85;;;1.90;99.90;;;;;;6721768;88;21071;-78
2021/03/19 04:12:29;;;;;;;28.23;13.62;;;1.80;99.90;;;;;;6731225;88;21058;-78
2021/03/19 04:22:29;;;;;;;30.10;14.20;;;1.70;99.90;;;;;;6748285;88;20200;-78
2021/03/19 04:32:30;;;;;;;27.92;13.50;;;1.70;99.90;;;;;;6744527;88;20270;-77
2021/03/19 04:42:32;;;;;;;30.37;14.20;;;1.60;99.90;;;;;;6742909;88;20209;-77
2021/03/19 04:52:33;;;;;;;24.83;12.90;;;1.70;99.90;;;;;;6742828;88;20184;-78
2021/03/19 05:02:37;;;;;;;26.40;12.73;;;1.40;99.90;;;;;;6738499;88;20200;-77
2021/03/19 05:12:38;;;;;;;28.30;12.68;;;1.50;99.90;;;;;;6741947;88;20463;-80
2021/03/19 05:22:39;;;;;;;29.58;13.27;;;1.40;99.90;;;;;;6707854;77;20171;-75
2021/03/19 05:32:40;;;;;;;31.15;14.52;;;1.30;99.90;;;;;;6677456;88;20207;-73
2021/03/19 05:42:41;;;;;;;32.08;13.98;;;1.20;99.90;;;;;;6674484;88;20435;-73
2021/03/19 05:52:41;;;;;;;30.40;13.62;;;1.00;99.90;;;;;;6676482;88;20544;-73
2021/03/19 06:02:42;;;;;;;28.98;13.77;;;1.00;99.90;;;;;;6675640;88;20179;-74
2021/03/19 06:12:43;;;;;;;26.87;13.18;;;1.00;99.90;;;;;;6681463;88;20660;-73
2021/03/19 06:23:06;;;;;;;33.70;15.00;;;1.00;99.90;;;;;;6692354;88;20170;-73
2021/03/19 06:33:12;;;;;;;34.38;14.52;;;1.20;99.90;;;;;;6692320;88;20241;-74
2021/03/19 06:43:33;;;;;;;;;;;1.20;99.90;;;;;;6694154;88;20330;-73
2021/03/19 06:53:33;;;;;;;24.12;11.23;;;1.60;99.90;;;;;;6695892;88;20198;-74
2021/03/19 07:04:13;;;;;;;21.65;9.88;;;1.90;99.90;;;;;;6699707;88;20213;-74
2021/03/19 07:14:24;;;;;;;20.75;10.25;;;2.20;99.90;;;;;;6691572;88;20245;-74
2021/03/19 07:24:43;;;;;;;17.60;9.00;;;2.50;99.90;;;;;;6692016;88;20179;-74
2021/03/19 07:35:02;;;;;;;16.33;7.93;;;3.00;99.90;;;;;;6690732;88;20190;-74
2021/03/19 07:45:28;;;;;;;14.57;7.60;;;3.50;99.90;;;;;;6697695;88;20209;-74
2021/03/19 07:55:50;;;;;;;16.10;7.93;;;4.00;99.90;;;;;;6699208;88;20388;-74
2021/03/19 08:05:53;;;;;;;15.43;7.35;;;4.40;99.90;;;;;;6697800;88;20242;-74
2021/03/19 08:16:02;;;;;;;14.25;7.07;;;5.20;99.90;;;;;;6693419;88;20292;-74
2021/03/19 08:26:03;;;;;;;13.80;6.18;;;5.80;99.90;;;;;;6695388;88;20975;-74
2021/03/19 08:36:25;;;;;;;12.85;6.50;;;5.90;99.90;;;;;;6696163;88;20191;-74
2021/03/19 08:46:44;;;;;;;12.63;5.93;;;6.60;99.90;;;;;;6694193;88;20274;-74
2021/03/19 08:57:02;;;;;;;12.20;5.65;;;6.90;99.90;;;;;;6696665;88;20780;-74
2021/03/19 09:07:27;;;;;;;9.13;4.90;;;7.10;99.90;;;;;;6694420;88;20194;-74
2021/03/19 09:17:44;;;;;;;11.50;5.20;;;7.80;99.90;;;;;;6694613;88;20747;-74
2021/03/19 09:28:25;;;;;;;9.03;4.80;;;8.50;99.90;;;;;;6693591;88;20366;-74
2021/03/19 09:38:29;;;;;;;9.10;3.87;;;8.90;99.90;;;;;;6659553;88;20788;-74
2021/03/19 09:48:33;;;;;;;5.75;2.97;;;9.30;99.30;;;;;;6691725;88;20373;-74
2021/03/19 09:58:43;;;;;;;5.15;3.10;;;9.50;97.80;;;;;;6691721;88;20187;-74
2021/03/19 10:08:44;;;;;;;3.12;1.60;;;9.40;95.40;;;;;;6693342;88;20178;-75
2021/03/19 10:18:45;;;;;;;3.62;1.58;;;9.70;90.30;;;;;;6694030;88;20220;-74
2021/03/19 10:29:04;;;;;;;3.67;1.60;;;9.50;86.90;;;;;;6693087;88;20182;-74
2021/03/19 10:39:12;;;;;;;2.78;1.42;;;9.50;82.30;;;;;;6697548;88;20302;-74
2021/03/19 10:49:33;;;;;;;3.92;1.50;;;8.70;82.70;;;;;;6698499;88;20199;-74
2021/03/19 10:59:36;;;;;;;3.22;1.50;;;9.30;80.90;;;;;;6695314;88;20210;-74
2021/03/19 11:10:05;;;;;;;2.53;1.30;;;9.60;80.80;;;;;;6696831;88;20254;-74
2021/03/19 11:20:31;;;;;;;3.67;1.30;;;10.50;77.90;;;;;;6708078;77;20252;-76
2021/03/19 11:30:37;;;;;;;2.60;1.43;;;10.30;80.70;;;;;;6708006;88;20847;-76
2021/03/19 11:40:41;;;;;;;6.23;1.60;;;9.90;78.40;;;;;;6697964;88;20237;-76
2021/03/19 11:50:45;;;;;;;2.85;1.27;;;9.30;80.90;;;;;;6698329;88;20201;-76
2021/03/19 12:00:46;;;;;;;4.18;1.50;;;10.70;76.70;;;;;;6690694;88;20251;-76
2021/03/19 12:10:46;;;;;;;4.68;1.50;;;10.10;78.90;;;;;;6698242;88;20174;-77
2021/03/19 12:20:47;;;;;;;2.97;1.30;;;9.80;81.50;;;;;;6698857;88;20198;-76
2021/03/19 12:30:50;;;;;;;3.40;1.33;;;10.30;76.90;;;;;;6698904;88;20201;-74
2021/03/19 12:40:50;;;;;;;5.00;1.30;;;9.20;79.30;;;;;;6706964;88;20202;-74
2021/03/19 12:50:51;;;;;;;3.78;1.60;;;11.40;75.60;;;;;;6698729;88;20206;-75
2021/03/19 13:00:52;;;;;;;2.70;1.40;;;12.30;74.70;;;;;;6700357;88;20249;-74
2021/03/19 13:10:52;;;;;;;3.50;1.10;;;10.00;77.30;;;;;;6697075;88;20805;-74
2021/03/19 13:20:53;;;;;;;1.90;1.10;;;10.40;71.00;;;;;;6697334;88;20230;-74
2021/03/19 13:30:55;;;;;;;2.00;1.20;;;11.80;71.50;;;;;;6696545;88;20196;-77
2021/03/19 13:40:58;;;;;;;3.15;1.30;;;13.00;67.70;;;;;;6698982;88;20508;-75
2021/03/19 13:51:00;;;;;;;4.53;1.37;;;13.30;63.70;;;;;;6693410;88;20320;-75
2021/03/19 14:01:05;;;;;;;4.65;1.15;;;13.70;63.30;;;;;;6688346;88;20234;-75
2021/03/19 14:11:08;;;;;;;3.05;0.98;;;12.40;65.60;;;;;;6695328;88;20183;-75
2021/03/19 14:21:10;;;;;;;3.80;0.90;;;11.10;64.40;;;;;;6696225;88;20873;-75
2021/03/19 14:31:13;;;;;;;1.80;0.82;;;10.60;67.40;;;;;;6683388;88;20701;-77
2021/03/19 14:41:14;;;;;;;3.33;1.00;;;12.10;63.50;;;;;;6684437;88;20320;-75
2021/03/19 14:51:14;;;;;;;2.72;0.80;;;11.50;65.40;;;;;;6684582;88;20659;-75
2021/03/19 15:01:15;;;;;;;2.25;0.70;;;11.30;65.00;;;;;;6697773;88;20183;-75
2021/03/19 15:11:16;;;;;;;1.10;0.50;;;11.80;63.90;;;;;;6692116;88;20699;-76
2021/03/19 15:21:16;;;;;;;1.80;0.70;;;11.30;64.00;;;;;;6688184;88;20655;-76
2021/03/19 15:31:18;;;;;;;1.73;0.60;;;11.40;64.60;;;;;;6702898;88;20299;-77
2021/03/19 15:41:20;;;;;;;2.15;0.60;;;10.20;66.50;;;;;;6703954;88;20191;-75
2021/03/19 15:51:21;;;;;;;1.92;0.50;;;9.70;67.80;;;;;;6698179;88;20191;-77
2021/03/19 16:01:21;;;;;;;2.10;0.60;;;9.40;66.70;;;;;;6703768;88;20213;-76
2021/03/19 16:11:23;;;;;;;3.20;0.50;;;9.20;67.30;;;;;;6697814;88;20735;-76
2021/03/19 16:21:23;;;;;;;1.27;0.50;;;9.10;69.50;;;;;;6695955;88;20682;-76
2021/03/19 16:31:24;;;;;;;1.50;0.50;;;8.90;69.20;;;;;;6698650;88;20194;-76
2021/03/19 16:41:25;;;;;;;2.83;1.05;;;8.50;70.80;;;;;;6692902;88;20245;-76
2021/03/19 16:51:32;;;;;;;3.55;0.90;;;8.00;71.70;;;;;;6695988;88;20570;-76
2021/03/19 17:01:33;;;;;;;2.08;0.62;;;7.80;74.80;;;;;;6703247;88;20607;-77
2021/03/19 17:11:34;;;;;;;2.60;0.60;;;7.50;77.20;;;;;;6703456;88;20219;-78
2021/03/19 17:32:57;;;;;;;1.05;0.57;;;7.20;79.10;;;;;;6749757;88;20244;-81
2021/03/19 17:42:58;;;;;;;2.17;0.70;;;6.80;82.30;;;;;;6696099;89;20260;-80
2021/03/19 17:52:59;;;;;;;1.48;0.80;;;6.50;84.00;;;;;;6698275;89;20163;-81
2021/03/19 18:03:00;;;;;;;1.77;0.90;;;6.50;85.70;;;;;;6681704;89;20205;-83
2021/03/19 18:13:01;;;;;;;1.67;0.95;;;6.20;90.00;;;;;;6705749;88;20230;-81
2021/03/19 18:23:11;;;;;;;1.58;0.88;;;6.10;92.20;;;;;;6701999;88;20700;-81
2021/03/19 18:33:12;;;;;;;2.58;1.08;;;5.80;93.40;;;;;;6717050;88;20320;-81
2021/03/19 18:43:14;;;;;;;2.45;1.20;;;5.70;96.10;;;;;;6725094;88;20173;-82
2021/03/19 18:53:15;;;;;;;3.22;1.15;;;5.60;98.40;;;;;;6724384;88;20218;-81
2021/03/19 19:03:18;;;;;;;2.75;1.33;;;5.60;98.40;;;;;;6723713;88;20194;-82
2021/03/19 19:13:18;;;;;;;3.42;1.23;;;5.50;99.90;;;;;;6724013;88;20198;-81
2021/03/19 19:23:21;;;;;;;3.12;1.30;;;5.50;99.90;;;;;;6723647;88;20228;-81
2021/03/19 19:33:22;;;;;;;2.60;1.45;;;5.30;99.90;;;;;;6726216;88;20206;-80
2021/03/19 19:43:23;;;;;;;6.05;1.83;;;5.20;99.90;;;;;;6724535;88;20623;-80
2021/03/19 19:53:24;;;;;;;4.85;1.70;;;5.10;99.90;;;;;;6724669;88;20233;-80
2021/03/19 20:03:25;;;;;;;4.30;1.75;;;4.90;99.90;;;;;;6719918;88;20224;-80
2021/03/19 20:13:28;;;;;;;3.83;2.17;;;4.80;99.90;;;;;;6722592;88;20222;-80
2021/03/19 20:23:29;;;;;;;7.25;2.80;;;4.50;99.90;;;;;;6728090;88;20189;-84
2021/03/19 20:33:30;;;;;;;4.60;2.72;;;4.40;99.90;;;;;;6732176;88;20293;-84
2021/03/19 20:43:30;;;;;;;5.68;3.20;;;4.40;99.90;;;;;;6734508;88;20185;-83
2021/03/19 22:34:49;;;;;;;8.70;4.05;;;2.70;99.90;;;;;;4969824;77;20176;-82
2021/03/19 22:44:49;;;;;;;7.07;4.15;;;2.60;99.90;;;;;;6710901;88;20362;-79
2021/03/19 22:54:53;;;;;;;6.57;3.87;;;2.80;99.90;;;;;;6709124;88;20255;-81
2021/03/19 23:04:54;;;;;;;7.68;4.00;;;2.90;99.90;;;;;;6713853;88;20542;-79
2021/03/19 23:14:54;;;;;;;6.57;4.15;;;2.90;99.90;;;;;;6710550;88;20331;-81
2021/03/19 23:24:55;;;;;;;6.70;4.18;;;3.00;99.90;;;;;;6713553;88;20563;-81
2021/03/19 23:34:57;;;;;;;7.45;4.28;;;3.00;99.90;;;;;;6710266;88;20234;-82
2021/03/19 23:44:57;;;;;;;6.72;4.25;;;3.00;99.90;;;;;;6712955;88;20157;-81
2021/03/19 23:54:59;;;;;;;7.45;3.85;;;3.00;99.90;;;;;;6718475;88;20166;-84
